createdAt,value
2019-01-23T00:01:02.613Z,45.00
2019-01-23T00:06:14.436Z,45.20
2019-01-23T00:08:44.644Z,45.30
2019-01-23T00:11:13.405Z,45.90
2019-01-23T00:13:51.205Z,45.30
2019-01-23T00:16:20.295Z,44.80
2019-01-23T00:18:49.044Z,43.90
2019-01-23T00:21:17.745Z,43.30
2019-01-23T00:26:29.820Z,44.00
2019-01-23T00:28:58.869Z,44.20
2019-01-23T00:31:27.735Z,44.00
2019-01-23T00:34:07.816Z,43.70
2019-01-23T00:36:36.912Z,43.30
2019-01-23T00:39:08.049Z,43.80
2019-01-23T00:41:36.904Z,44.20
2019-01-23T00:46:48.938Z,44.20
2019-01-23T00:49:17.706Z,45.10
2019-01-23T00:51:55.403Z,45.00
2019-01-23T00:54:24.341Z,44.70
2019-01-23T00:56:53.150Z,44.40
2019-01-23T00:59:21.896Z,44.30
2019-01-23T01:01:59.821Z,44.80
2019-01-23T01:04:31.493Z,45.00
2019-01-23T01:07:00.238Z,45.00
2019-01-23T01:09:29.049Z,45.00
2019-01-23T01:12:07.043Z,44.80
2019-01-23T01:14:37.610Z,44.70
2019-01-23T01:17:06.326Z,45.40
2019-01-23T01:19:35.466Z,45.30
2019-01-23T01:22:13.625Z,45.80
2019-01-23T01:24:42.595Z,45.10
2019-01-23T01:27:11.540Z,45.00
2019-01-23T01:29:40.404Z,44.80
2019-01-23T01:32:18.744Z,44.20
2019-01-23T01:34:47.527Z,44.20
2019-01-23T01:37:16.253Z,44.40
2019-01-23T01:39:45.180Z,44.70
2019-01-23T01:42:23.000Z,45.00
2019-01-23T01:44:51.973Z,44.80
2019-01-23T01:47:20.834Z,44.50
2019-01-23T01:49:49.752Z,44.50
2019-01-23T01:52:27.808Z,44.30
2019-01-23T01:54:56.622Z,45.00
2019-01-23T01:57:25.483Z,45.10
2019-01-23T01:59:54.659Z,44.80
2019-01-23T02:02:32.862Z,44.40
2019-01-23T02:05:01.732Z,44.50
2019-01-23T02:07:30.402Z,44.50
2019-01-23T02:09:59.256Z,44.60
2019-01-23T02:12:37.292Z,44.40
2019-01-23T02:15:07.433Z,44.00
2019-01-23T02:17:39.208Z,43.80
2019-01-23T02:22:56.618Z,43.90
2019-01-23T02:25:37.568Z,44.20
2019-01-23T02:31:00.661Z,43.80
2019-01-23T02:33:42.284Z,43.50
2019-01-23T02:36:22.670Z,43.00
2019-01-23T02:38:51.841Z,42.80
2019-01-23T02:41:39.905Z,42.40
2019-01-23T02:44:28.115Z,42.00
2019-01-23T02:47:16.511Z,42.10
2019-01-23T02:50:05.328Z,42.40
2019-01-23T02:52:53.362Z,42.50
2019-01-23T02:55:22.265Z,42.90
2019-01-23T02:58:10.256Z,42.90
2019-01-23T03:00:58.600Z,42.50
2019-01-23T03:03:47.027Z,42.90
2019-01-23T03:06:35.169Z,43.30
2019-01-23T03:09:06.477Z,43.20
2019-01-23T03:12:13.781Z,43.00
2019-01-23T03:15:01.855Z,42.80
2019-01-23T03:17:49.988Z,43.20
2019-01-23T03:20:38.103Z,42.90
2019-01-23T03:23:26.500Z,42.80
2019-01-23T03:26:14.608Z,42.50
2019-01-23T03:29:02.839Z,42.60
2019-01-23T03:31:50.962Z,42.60
2019-01-23T03:34:39.229Z,42.70
2019-01-23T03:37:08.097Z,42.50
2019-01-23T03:39:56.233Z,43.20
2019-01-23T03:42:44.682Z,43.00
2019-01-23T03:45:32.748Z,42.80
2019-01-23T03:48:20.893Z,43.00
2019-01-23T03:51:09.341Z,43.20
2019-01-23T03:53:57.497Z,43.30
2019-01-23T03:59:20.762Z,42.60
2019-01-23T04:02:20.765Z,42.50
2019-01-23T04:05:01.305Z,42.30
2019-01-23T04:10:14.321Z,42.40
2019-01-23T04:13:02.500Z,42.30
2019-01-23T04:15:50.649Z,42.50
2019-01-23T04:18:20.980Z,42.60
2019-01-23T04:21:09.039Z,42.80
2019-01-23T04:23:57.098Z,42.80
2019-01-23T04:26:45.337Z,42.40
2019-01-23T04:29:39.550Z,42.00
2019-01-23T04:35:11.340Z,41.50
2019-01-23T04:37:40.138Z,41.40
2019-01-23T04:40:28.353Z,41.80
2019-01-23T04:43:16.380Z,41.80
2019-01-23T04:46:04.711Z,41.70
2019-01-23T04:48:52.761Z,41.30
2019-01-23T04:51:59.811Z,41.10
2019-01-23T04:54:47.890Z,41.00
2019-01-23T04:57:28.451Z,41.20
2019-01-23T05:00:10.029Z,41.20
2019-01-23T05:02:51.404Z,41.20
2019-01-23T05:05:20.335Z,41.10
2019-01-23T05:08:08.387Z,41.10
2019-01-23T05:10:56.561Z,41.10
2019-01-23T05:13:44.688Z,41.60
2019-01-23T05:16:32.690Z,41.60
2019-01-23T05:19:20.820Z,41.50
2019-01-23T05:22:09.621Z,41.80
2019-01-23T05:24:58.121Z,42.00
2019-01-23T05:27:26.958Z,41.90
2019-01-23T05:30:19.396Z,42.10
2019-01-23T05:33:07.776Z,42.40
2019-01-23T05:35:55.732Z,42.40
2019-01-23T05:38:35.056Z,42.60
2019-01-23T05:44:54.825Z,42.70
2019-01-23T05:47:45.053Z,42.60
2019-01-23T05:50:26.764Z,42.80
2019-01-23T05:53:07.713Z,42.70
2019-01-23T05:55:48.286Z,42.10
2019-01-23T05:58:29.299Z,42.00
2019-01-23T06:01:09.737Z,41.90
2019-01-23T06:03:50.574Z,42.20
2019-01-23T06:09:13.573Z,42.80
2019-01-23T06:14:42.255Z,42.50
2019-01-23T06:17:23.165Z,42.30
2019-01-23T06:19:52.131Z,42.50
2019-01-23T06:22:40.189Z,42.50
2019-01-23T06:25:09.254Z,42.10
2019-01-23T06:27:57.381Z,42.30
2019-01-23T06:30:45.454Z,42.30
2019-01-23T06:33:33.812Z,42.30
2019-01-23T06:36:22.177Z,42.10
2019-01-23T06:39:11.098Z,42.30
2019-01-23T06:41:59.158Z,42.20
2019-01-23T06:44:47.613Z,42.10
2019-01-23T06:47:35.901Z,42.20
2019-01-23T06:50:23.962Z,42.10
2019-01-23T06:53:14.209Z,42.10
2019-01-23T06:56:02.722Z,41.90
2019-01-23T06:58:43.635Z,41.80
2019-01-23T07:01:24.580Z,41.40
2019-01-23T07:04:06.047Z,41.70
2019-01-23T07:06:47.208Z,41.80
2019-01-23T07:09:16.004Z,41.90
2019-01-23T07:12:04.443Z,42.10
2019-01-23T07:14:52.524Z,42.10
2019-01-23T07:17:40.638Z,42.10
2019-01-23T07:20:28.867Z,42.10
2019-01-23T07:23:17.077Z,42.10
2019-01-23T07:26:05.902Z,41.80
2019-01-23T07:28:53.933Z,41.80
2019-01-23T07:31:42.163Z,42.60
2019-01-23T07:34:30.429Z,42.50
2019-01-23T07:37:20.961Z,42.50
2019-01-23T07:39:50.451Z,42.50
2019-01-23T07:42:38.957Z,42.80
2019-01-23T07:45:28.755Z,42.50
2019-01-23T07:48:17.096Z,42.20
2019-01-23T07:51:05.874Z,42.10
2019-01-23T07:56:44.158Z,41.90
2019-01-23T07:59:32.643Z,42.20
2019-01-23T08:02:14.034Z,42.50
2019-01-23T08:04:56.001Z,42.70
2019-01-23T08:07:37.281Z,42.80
2019-01-23T08:10:19.219Z,43.20
2019-01-23T08:13:00.030Z,43.00
2019-01-23T08:15:41.036Z,42.90
2019-01-23T08:18:10.193Z,42.50
2019-01-23T08:20:58.905Z,42.10
2019-01-23T08:23:47.345Z,41.90
2019-01-23T08:26:16.737Z,42.00
2019-01-23T08:29:05.670Z,41.30
2019-01-23T08:31:54.129Z,41.20
2019-01-23T08:34:42.655Z,41.20
2019-01-23T08:40:18.928Z,42.00
2019-01-23T08:43:07.086Z,41.70
2019-01-23T08:48:43.150Z,43.60
2019-01-23T08:51:11.857Z,42.40
2019-01-23T08:54:00.292Z,42.10
2019-01-23T08:57:02.750Z,42.00
2019-01-23T08:59:38.330Z,42.10
2019-01-23T09:05:14.397Z,42.30
2019-01-23T09:07:43.184Z,41.90
2019-01-23T09:10:15.349Z,41.00
2019-01-23T09:13:03.335Z,40.30
2019-01-23T09:15:51.443Z,40.80
2019-01-23T09:18:39.662Z,41.30
2019-01-23T09:24:09.314Z,41.50
2019-01-23T09:26:57.463Z,40.80
2019-01-23T09:29:26.364Z,40.50
2019-01-23T09:32:33.748Z,40.30
2019-01-23T09:35:59.101Z,39.90
2019-01-23T09:38:51.247Z,40.20
2019-01-23T09:41:58.880Z,40.20
2019-01-23T09:45:06.965Z,40.20
2019-01-23T09:48:14.392Z,39.70
2019-01-23T09:51:11.728Z,40.20
2019-01-23T09:54:03.336Z,39.40
2019-01-23T09:56:51.481Z,39.40
2019-01-23T09:59:20.465Z,38.90
2019-01-23T10:01:49.810Z,38.90
2019-01-23T10:04:38.150Z,38.80
2019-01-23T10:07:28.391Z,38.70
2019-01-23T10:10:09.814Z,38.70
2019-01-23T10:12:38.526Z,38.70
2019-01-23T10:15:28.402Z,38.80
2019-01-23T10:18:16.531Z,38.90
2019-01-23T10:21:04.616Z,39.10
2019-01-23T10:24:11.969Z,39.10
2019-01-23T10:27:00.104Z,39.20
2019-01-23T10:29:48.090Z,39.30
2019-01-23T10:32:36.195Z,39.30
2019-01-23T10:35:24.250Z,39.10
2019-01-23T10:38:12.499Z,38.80
2019-01-23T10:41:00.661Z,38.00
2019-01-23T10:46:55.914Z,38.20
2019-01-23T10:49:44.029Z,38.50
2019-01-23T10:52:32.292Z,38.50
2019-01-23T10:55:20.381Z,38.50
2019-01-23T10:58:08.527Z,38.60
2019-01-23T11:00:58.396Z,38.00
2019-01-23T11:03:27.055Z,37.70
2019-01-23T11:06:15.070Z,37.70
2019-01-23T11:08:43.862Z,37.10
2019-01-23T11:11:24.329Z,37.10
2019-01-23T11:17:00.220Z,36.60
2019-01-23T11:19:48.874Z,36.30
2019-01-23T11:22:37.228Z,36.80
2019-01-23T11:25:25.764Z,36.80
2019-01-23T11:28:14.065Z,36.80
2019-01-23T11:30:42.945Z,37.00
2019-01-23T11:33:11.976Z,37.00
2019-01-23T11:36:00.387Z,37.30
2019-01-23T11:38:48.939Z,37.10
2019-01-23T11:41:37.201Z,37.20
2019-01-23T11:44:25.441Z,37.30
2019-01-23T11:47:13.940Z,38.00
2019-01-23T11:50:01.808Z,37.50
2019-01-23T11:52:51.343Z,37.10
2019-01-23T11:55:39.642Z,37.00
2019-01-23T11:58:08.477Z,37.00
2019-01-23T12:00:37.394Z,36.80
2019-01-23T12:03:06.879Z,36.80
2019-01-23T12:05:55.002Z,37.10
2019-01-23T12:11:12.810Z,37.00
2019-01-23T12:13:42.412Z,36.80
2019-01-23T12:16:30.512Z,37.00
2019-01-23T12:19:20.447Z,37.80
2019-01-23T12:22:09.217Z,36.90
2019-01-23T12:24:57.437Z,37.10
2019-01-23T12:27:45.566Z,37.80
2019-01-23T12:30:34.324Z,37.90
2019-01-23T12:38:38.978Z,35.80
2019-01-23T12:44:22.358Z,35.70
2019-01-23T12:47:10.546Z,35.60
2019-01-23T12:49:39.307Z,35.40
2019-01-23T12:52:08.033Z,35.30
2019-01-23T12:54:56.401Z,34.80
2019-01-23T12:57:44.561Z,34.50
2019-01-23T13:03:05.403Z,35.00
2019-01-23T13:08:28.491Z,34.80
2019-01-23T13:11:09.699Z,35.00
2019-01-23T13:13:39.946Z,35.10
2019-01-23T13:16:28.562Z,34.70
2019-01-23T13:19:16.657Z,34.40
2019-01-23T13:22:05.230Z,34.60
2019-01-23T13:24:53.623Z,34.40
2019-01-23T13:27:42.556Z,34.30
2019-01-23T13:30:31.199Z,34.40
2019-01-23T13:36:15.193Z,33.70
2019-01-23T13:39:05.061Z,34.10
2019-01-23T13:41:53.262Z,34.40
2019-01-23T13:44:44.753Z,34.30
2019-01-23T13:47:33.321Z,34.70
2019-01-23T13:50:02.042Z,34.50
2019-01-23T13:52:30.926Z,34.10
2019-01-23T13:55:19.539Z,33.90
2019-01-23T13:58:08.038Z,34.20
2019-01-23T14:00:56.596Z,34.40
2019-01-23T14:03:25.418Z,35.00
2019-01-23T14:06:13.914Z,35.00
2019-01-23T14:08:43.600Z,35.20
2019-01-23T14:11:16.234Z,35.80
2019-01-23T14:14:05.251Z,36.90
2019-01-23T14:19:34.389Z,37.80
2019-01-23T14:22:23.507Z,37.10
2019-01-23T14:25:13.293Z,37.30
2019-01-23T14:28:02.235Z,37.40
2019-01-23T14:30:51.183Z,37.20
2019-01-23T14:33:39.593Z,36.50
2019-01-23T14:36:28.417Z,37.00
2019-01-23T14:39:17.160Z,37.40
2019-01-23T14:42:06.430Z,37.20
2019-01-23T14:44:54.957Z,37.10
2019-01-23T14:47:24.121Z,37.50
2019-01-23T14:50:13.630Z,37.40
2019-01-23T14:58:52.950Z,37.20
2019-01-23T15:01:42.466Z,37.00
2019-01-23T15:04:31.816Z,36.90
2019-01-23T15:07:21.051Z,36.70
2019-01-23T15:10:14.658Z,37.30
2019-01-23T15:13:22.214Z,37.10
2019-01-23T15:16:25.136Z,37.00
2019-01-23T15:19:01.005Z,38.20
2019-01-23T15:21:42.250Z,38.40
2019-01-23T15:24:22.918Z,39.10
2019-01-23T15:27:05.021Z,38.60
2019-01-23T15:29:46.386Z,38.20
2019-01-23T15:32:27.318Z,38.30
2019-01-23T15:34:57.855Z,39.30
2019-01-23T15:37:46.736Z,39.00
2019-01-23T15:40:20.582Z,38.40
2019-01-23T15:42:51.336Z,38.40
2019-01-23T15:45:58.740Z,38.00
2019-01-23T15:48:48.280Z,37.90
2019-01-23T15:51:36.982Z,38.10
2019-01-23T15:57:54.466Z,39.20
2019-01-23T16:00:43.202Z,39.70
2019-01-23T16:03:32.254Z,39.80
2019-01-23T16:06:23.169Z,41.10
2019-01-23T16:08:53.951Z,40.10
2019-01-23T16:11:25.350Z,40.10
2019-01-23T16:13:55.728Z,39.70
2019-01-23T16:16:44.613Z,39.80
2019-01-23T16:19:15.327Z,39.60
2019-01-23T16:22:06.543Z,39.40
2019-01-23T16:27:58.799Z,39.20
2019-01-23T16:30:47.984Z,40.50
2019-01-23T16:33:36.939Z,40.10
2019-01-23T16:36:25.938Z,40.10
2019-01-23T16:39:14.694Z,39.70
2019-01-23T16:42:03.760Z,39.60
2019-01-23T16:44:53.168Z,39.30
2019-01-23T16:51:11.882Z,39.60
2019-01-23T16:54:01.000Z,39.70
2019-01-23T16:56:49.924Z,39.30
2019-01-23T16:59:38.666Z,39.70
2019-01-23T17:02:27.521Z,39.60
2019-01-23T17:07:54.151Z,39.80
2019-01-23T17:10:46.470Z,40.10
2019-01-23T17:13:54.400Z,39.80
2019-01-23T17:16:44.581Z,39.40
2019-01-23T17:19:15.924Z,39.80
2019-01-23T17:21:46.190Z,39.80
2019-01-23T17:24:35.327Z,40.10
2019-01-23T17:27:24.546Z,40.20
2019-01-23T17:30:13.890Z,40.50
2019-01-23T17:33:03.843Z,40.20
2019-01-23T17:35:52.958Z,40.30
2019-01-23T17:38:42.508Z,40.20
2019-01-23T17:41:32.042Z,40.00
2019-01-23T17:44:21.348Z,39.80
2019-01-23T17:47:10.708Z,39.90
2019-01-23T17:55:36.575Z,39.70
2019-01-23T17:58:14.263Z,40.30
2019-01-23T18:01:04.068Z,40.80
2019-01-23T18:03:53.469Z,40.90
2019-01-23T18:06:45.882Z,40.80
2019-01-23T18:09:18.674Z,40.50
2019-01-23T18:12:08.221Z,40.60
2019-01-23T18:15:18.368Z,40.50
2019-01-23T18:21:28.439Z,40.70
2019-01-23T18:28:08.406Z,41.00
2019-01-23T18:31:01.703Z,41.10
2019-01-23T18:33:55.604Z,41.00
2019-01-23T18:36:52.294Z,40.90
2019-01-23T18:40:00.371Z,40.80
2019-01-23T18:43:08.141Z,40.60
2019-01-23T18:46:15.597Z,41.00
2019-01-23T18:48:56.381Z,41.00
2019-01-23T18:51:38.220Z,41.10
2019-01-23T18:57:11.243Z,41.30
2019-01-23T19:00:00.658Z,41.30
2019-01-23T19:06:00.388Z,41.40
2019-01-23T19:08:52.099Z,41.40
2019-01-23T19:11:42.405Z,41.40
2019-01-23T19:14:32.557Z,41.10
2019-01-23T19:17:23.163Z,41.10
2019-01-23T19:20:35.343Z,41.20
2019-01-23T19:23:25.681Z,41.30
2019-01-23T19:26:36.440Z,41.30
2019-01-23T19:29:27.946Z,41.80
2019-01-23T19:31:59.938Z,41.60
2019-01-23T19:34:53.030Z,41.50
2019-01-23T19:37:30.385Z,41.40
2019-01-23T19:40:26.114Z,41.20
2019-01-23T19:43:37.098Z,41.00
2019-01-23T19:52:20.985Z,41.50
2019-01-23T19:58:42.258Z,41.60
2019-01-23T20:01:32.667Z,41.60
2019-01-23T20:04:23.909Z,41.50
2019-01-23T20:07:30.350Z,41.00
2019-01-23T20:10:24.509Z,41.10
2019-01-23T20:13:00.770Z,41.60
2019-01-23T20:15:51.254Z,42.00
2019-01-23T20:18:41.693Z,41.50
2019-01-23T20:21:32.954Z,41.60
2019-01-23T20:27:40.251Z,42.20
2019-01-23T20:30:31.696Z,41.90
2019-01-23T20:36:37.635Z,41.60
2019-01-23T20:39:48.757Z,41.20
2019-01-23T20:42:39.851Z,40.90
2019-01-23T20:45:29.844Z,41.10
2019-01-23T20:48:40.067Z,40.90
2019-01-23T20:51:31.545Z,40.60
2019-01-23T21:00:25.629Z,40.60
2019-01-23T21:10:01.200Z,40.40
2019-01-23T21:12:51.142Z,40.60
2019-01-23T21:15:31.996Z,40.40
2019-01-23T21:21:23.697Z,40.50
2019-01-23T21:33:59.460Z,41.20
2019-01-23T21:36:31.736Z,41.30
2019-01-23T21:39:21.865Z,41.30
2019-01-23T21:42:30.383Z,40.70
2019-01-23T21:48:28.504Z,41.10
2019-01-23T21:51:17.658Z,40.80
2019-01-23T21:54:07.327Z,40.90
2019-01-23T21:56:38.086Z,40.60
2019-01-23T21:59:09.058Z,40.30
2019-01-23T22:01:39.167Z,41.10
2019-01-23T22:04:28.832Z,40.70
2019-01-23T22:07:17.812Z,40.70
2019-01-23T22:10:06.982Z,40.70
2019-01-23T22:12:55.907Z,41.00
2019-01-23T22:15:45.415Z,40.60
2019-01-23T22:18:15.889Z,40.10
2019-01-23T22:21:05.340Z,40.30
2019-01-23T22:24:12.785Z,40.50
2019-01-23T22:27:01.504Z,40.50
2019-01-23T22:29:49.998Z,40.40
2019-01-23T22:32:19.158Z,41.10
2019-01-23T22:35:07.653Z,40.10
2019-01-23T22:37:56.458Z,39.80
2019-01-23T22:40:25.867Z,39.90
2019-01-23T22:42:55.673Z,39.70
2019-01-23T22:45:45.500Z,40.10
2019-01-23T22:48:34.247Z,40.00
2019-01-23T22:51:22.847Z,40.20
2019-01-23T22:53:52.450Z,40.30
2019-01-23T22:56:41.372Z,40.00
2019-01-23T22:59:30.526Z,40.00
2019-01-23T23:02:19.197Z,39.60
2019-01-23T23:05:07.917Z,39.70
2019-01-23T23:13:50.713Z,39.20
2019-01-23T23:22:36.402Z,38.50
2019-01-23T23:25:05.606Z,39.20
2019-01-23T23:27:39.544Z,40.00
2019-01-23T23:30:27.572Z,39.50
2019-01-23T23:33:08.532Z,39.40
2019-01-23T23:35:37.612Z,39.40
2019-01-23T23:38:25.680Z,39.70
2019-01-23T23:41:33.088Z,39.30
2019-01-23T23:44:02.027Z,39.20
2019-01-23T23:46:50.310Z,39.20
2019-01-23T23:49:38.402Z,39.10
2019-01-23T23:52:26.971Z,38.80
2019-01-23T23:55:14.996Z,38.80
2019-01-23T23:58:03.151Z,39.00
